sensor_id;sensor_type;location;lat;lon;timestamp;temperature;humidity
65692;DHT22;52411;52.716;6.696;2023-06-14T00:01:24;17.00;59.40
65692;DHT22;52411;52.716;6.696;2023-06-14T00:03:50;17.00;59.70
65692;DHT22;52411;52.716;6.696;2023-06-14T00:06:16;16.90;59.90
65692;DHT22;52411;52.716;6.696;2023-06-14T00:08:42;16.90;59.90
65692;DHT22;52411;52.716;6.696;2023-06-14T00:11:08;16.80;60.20
65692;DHT22;52411;52.716;6.696;2023-06-14T00:13:33;16.80;60.30
65692;DHT22;52411;52.716;6.696;2023-06-14T00:15:59;16.80;60.50
65692;DHT22;52411;52.716;6.696;2023-06-14T00:18:24;16.80;60.70
65692;DHT22;52411;52.716;6.696;2023-06-14T00:20:55;16.70;61.10
65692;DHT22;52411;52.716;6.696;2023-06-14T00:23:21;16.70;60.80
65692;DHT22;52411;52.716;6.696;2023-06-14T00:25:46;16.70;61.30
65692;DHT22;52411;52.716;6.696;2023-06-14T00:28:12;16.70;61.70
65692;DHT22;52411;52.716;6.696;2023-06-14T00:30:38;16.60;61.70
65692;DHT22;52411;52.716;6.696;2023-06-14T00:33:04;16.60;62.00
65692;DHT22;52411;52.716;6.696;2023-06-14T00:35:30;16.60;62.10
65692;DHT22;52411;52.716;6.696;2023-06-14T00:37:55;16.60;61.90
65692;DHT22;52411;52.716;6.696;2023-06-14T00:40:21;16.50;62.60
65692;DHT22;52411;52.716;6.696;2023-06-14T00:42:47;16.50;63.30
65692;DHT22;52411;52.716;6.696;2023-06-14T00:45:13;16.50;63.40
65692;DHT22;52411;52.716;6.696;2023-06-14T00:47:41;16.40;64.30
65692;DHT22;52411;52.716;6.696;2023-06-14T00:50:08;16.40;64.40
65692;DHT22;52411;52.716;6.696;2023-06-14T00:52:34;16.30;64.90
65692;DHT22;52411;52.716;6.696;2023-06-14T00:55:00;16.30;65.30
65692;DHT22;52411;52.716;6.696;2023-06-14T00:57:27;16.20;66.60
65692;DHT22;52411;52.716;6.696;2023-06-14T00:59:52;16.20;66.40
65692;DHT22;52411;52.716;6.696;2023-06-14T01:02:18;16.10;67.10
65692;DHT22;52411;52.716;6.696;2023-06-14T01:04:46;16.00;69.00
65692;DHT22;52411;52.716;6.696;2023-06-14T01:12:41;15.90;71.60
65692;DHT22;52411;52.716;6.696;2023-06-14T01:15:10;15.90;70.30
65692;DHT22;52411;52.716;6.696;2023-06-14T01:17:38;15.90;71.30
65692;DHT22;52411;52.716;6.696;2023-06-14T01:20:10;15.80;71.90
65692;DHT22;52411;52.716;6.696;2023-06-14T01:22:50;15.80;73.30
65692;DHT22;52411;52.716;6.696;2023-06-14T01:25:16;15.80;75.30
65692;DHT22;52411;52.716;6.696;2023-06-14T01:27:53;15.70;74.30
65692;DHT22;52411;52.716;6.696;2023-06-14T01:30:21;15.70;75.80
65692;DHT22;52411;52.716;6.696;2023-06-14T01:32:49;15.60;76.30
65692;DHT22;52411;52.716;6.696;2023-06-14T01:35:15;15.50;77.40
65692;DHT22;52411;52.716;6.696;2023-06-14T01:37:42;15.50;77.00
65692;DHT22;52411;52.716;6.696;2023-06-14T01:40:09;15.50;77.20
65692;DHT22;52411;52.716;6.696;2023-06-14T01:42:38;15.40;78.40
65692;DHT22;52411;52.716;6.696;2023-06-14T01:45:07;15.40;78.80
65692;DHT22;52411;52.716;6.696;2023-06-14T01:47:34;15.40;80.00
65692;DHT22;52411;52.716;6.696;2023-06-14T01:50:02;15.30;81.10
65692;DHT22;52411;52.716;6.696;2023-06-14T01:52:28;15.20;81.10
65692;DHT22;52411;52.716;6.696;2023-06-14T01:54:53;15.20;81.20
65692;DHT22;52411;52.716;6.696;2023-06-14T01:57:19;15.10;82.60
65692;DHT22;52411;52.716;6.696;2023-06-14T01:59:46;15.10;83.40
65692;DHT22;52411;52.716;6.696;2023-06-14T02:02:14;15.00;84.20
65692;DHT22;52411;52.716;6.696;2023-06-14T02:04:40;15.00;84.60
65692;DHT22;52411;52.716;6.696;2023-06-14T02:07:06;15.00;84.80
65692;DHT22;52411;52.716;6.696;2023-06-14T02:09:31;15.00;85.80
65692;DHT22;52411;52.716;6.696;2023-06-14T02:11:57;14.90;86.60
65692;DHT22;52411;52.716;6.696;2023-06-14T02:14:23;14.80;87.30
65692;DHT22;52411;52.716;6.696;2023-06-14T02:16:49;14.80;86.70
65692;DHT22;52411;52.716;6.696;2023-06-14T02:19:16;14.80;87.80
65692;DHT22;52411;52.716;6.696;2023-06-14T02:21:42;14.80;88.20
65692;DHT22;52411;52.716;6.696;2023-06-14T02:24:08;14.80;88.50
65692;DHT22;52411;52.716;6.696;2023-06-14T02:26:33;14.70;89.30
65692;DHT22;52411;52.716;6.696;2023-06-14T02:28:59;14.70;89.80
65692;DHT22;52411;52.716;6.696;2023-06-14T02:31:26;14.60;90.00
65692;DHT22;52411;52.716;6.696;2023-06-14T02:33:52;14.60;90.20
65692;DHT22;52411;52.716;6.696;2023-06-14T02:36:17;14.60;90.40
65692;DHT22;52411;52.716;6.696;2023-06-14T02:38:43;14.60;90.40
65692;DHT22;52411;52.716;6.696;2023-06-14T02:41:09;14.60;90.90
65692;DHT22;52411;52.716;6.696;2023-06-14T02:43:34;14.50;91.20
65692;DHT22;52411;52.716;6.696;2023-06-14T02:46:00;14.50;91.20
65692;DHT22;52411;52.716;6.696;2023-06-14T02:48:27;14.50;91.30
65692;DHT22;52411;52.716;6.696;2023-06-14T02:50:52;14.40;91.70
65692;DHT22;52411;52.716;6.696;2023-06-14T02:53:18;14.40;91.70
65692;DHT22;52411;52.716;6.696;2023-06-14T02:55:43;14.40;91.70
65692;DHT22;52411;52.716;6.696;2023-06-14T02:58:09;14.30;91.90
65692;DHT22;52411;52.716;6.696;2023-06-14T03:00:35;14.30;92.10
65692;DHT22;52411;52.716;6.696;2023-06-14T03:03:01;14.30;92.80
65692;DHT22;52411;52.716;6.696;2023-06-14T03:05:27;14.20;92.60
65692;DHT22;52411;52.716;6.696;2023-06-14T03:07:53;14.10;92.80
65692;DHT22;52411;52.716;6.696;2023-06-14T03:10:20;14.10;93.10
65692;DHT22;52411;52.716;6.696;2023-06-14T03:12:46;14.10;93.80
65692;DHT22;52411;52.716;6.696;2023-06-14T03:15:12;14.10;93.80
65692;DHT22;52411;52.716;6.696;2023-06-14T03:17:38;14.10;93.80
65692;DHT22;52411;52.716;6.696;2023-06-14T03:20:05;14.00;94.20
65692;DHT22;52411;52.716;6.696;2023-06-14T03:22:31;14.00;94.30
65692;DHT22;52411;52.716;6.696;2023-06-14T03:24:59;13.90;94.60
65692;DHT22;52411;52.716;6.696;2023-06-14T03:27:25;13.90;95.00
65692;DHT22;52411;52.716;6.696;2023-06-14T03:29:53;13.90;95.30
65692;DHT22;52411;52.716;6.696;2023-06-14T03:32:19;13.90;95.20
65692;DHT22;52411;52.716;6.696;2023-06-14T03:34:44;14.00;95.40
65692;DHT22;52411;52.716;6.696;2023-06-14T03:37:10;14.00;95.50
65692;DHT22;52411;52.716;6.696;2023-06-14T03:39:36;14.00;95.60
65692;DHT22;52411;52.716;6.696;2023-06-14T03:42:02;14.10;95.60
65692;DHT22;52411;52.716;6.696;2023-06-14T03:44:28;14.10;95.90
65692;DHT22;52411;52.716;6.696;2023-06-14T03:46:53;14.10;95.90
65692;DHT22;52411;52.716;6.696;2023-06-14T03:49:19;14.20;96.10
65692;DHT22;52411;52.716;6.696;2023-06-14T03:51:44;14.20;96.60
65692;DHT22;52411;52.716;6.696;2023-06-14T03:54:11;14.20;96.50
65692;DHT22;52411;52.716;6.696;2023-06-14T03:56:36;14.30;96.50
65692;DHT22;52411;52.716;6.696;2023-06-14T03:59:02;14.30;96.60
65692;DHT22;52411;52.716;6.696;2023-06-14T04:01:28;14.30;97.30
65692;DHT22;52411;52.716;6.696;2023-06-14T04:03:58;14.40;96.80
65692;DHT22;52411;52.716;6.696;2023-06-14T04:06:23;14.40;97.80
65692;DHT22;52411;52.716;6.696;2023-06-14T04:08:51;14.40;97.20
65692;DHT22;52411;52.716;6.696;2023-06-14T04:11:17;14.50;97.60
65692;DHT22;52411;52.716;6.696;2023-06-14T04:13:43;14.50;97.40
65692;DHT22;52411;52.716;6.696;2023-06-14T04:16:09;14.60;98.50
65692;DHT22;52411;52.716;6.696;2023-06-14T04:18:34;14.60;97.80
65692;DHT22;52411;52.716;6.696;2023-06-14T04:21:00;14.70;98.00
65692;DHT22;52411;52.716;6.696;2023-06-14T04:23:26;14.70;98.30
65692;DHT22;52411;52.716;6.696;2023-06-14T04:25:53;14.80;98.10
65692;DHT22;52411;52.716;6.696;2023-06-14T04:28:19;14.80;98.60
65692;DHT22;52411;52.716;6.696;2023-06-14T04:30:45;14.90;98.20
65692;DHT22;52411;52.716;6.696;2023-06-14T04:33:13;15.00;98.40
65692;DHT22;52411;52.716;6.696;2023-06-14T04:35:40;15.10;98.60
65692;DHT22;52411;52.716;6.696;2023-06-14T04:38:06;15.10;98.20
65692;DHT22;52411;52.716;6.696;2023-06-14T04:40:35;15.20;98.50
65692;DHT22;52411;52.716;6.696;2023-06-14T04:43:08;15.30;98.10
65692;DHT22;52411;52.716;6.696;2023-06-14T04:45:34;15.30;98.10
65692;DHT22;52411;52.716;6.696;2023-06-14T04:47:59;15.40;99.20
65692;DHT22;52411;52.716;6.696;2023-06-14T04:50:25;15.40;98.30
65692;DHT22;52411;52.716;6.696;2023-06-14T04:52:52;15.50;99.10
65692;DHT22;52411;52.716;6.696;2023-06-14T04:55:18;15.60;99.70
65692;DHT22;52411;52.716;6.696;2023-06-14T04:57:45;15.60;98.20
65692;DHT22;52411;52.716;6.696;2023-06-14T05:00:11;15.70;98.50
65692;DHT22;52411;52.716;6.696;2023-06-14T05:02:37;15.80;98.70
65692;DHT22;52411;52.716;6.696;2023-06-14T05:05:04;15.80;98.60
65692;DHT22;52411;52.716;6.696;2023-06-14T05:07:33;15.90;98.00
65692;DHT22;52411;52.716;6.696;2023-06-14T05:09:59;16.00;98.30
65692;DHT22;52411;52.716;6.696;2023-06-14T05:12:25;16.00;98.20
65692;DHT22;52411;52.716;6.696;2023-06-14T05:14:50;16.10;97.80
65692;DHT22;52411;52.716;6.696;2023-06-14T05:17:16;16.10;98.00
65692;DHT22;52411;52.716;6.696;2023-06-14T05:19:42;16.20;98.20
65692;DHT22;52411;52.716;6.696;2023-06-14T05:22:08;16.20;97.60
65692;DHT22;52411;52.716;6.696;2023-06-14T05:24:34;16.30;98.20
65692;DHT22;52411;52.716;6.696;2023-06-14T05:27:00;16.40;97.60
65692;DHT22;52411;52.716;6.696;2023-06-14T05:29:26;16.50;97.80
65692;DHT22;52411;52.716;6.696;2023-06-14T05:31:52;16.60;97.80
65692;DHT22;52411;52.716;6.696;2023-06-14T05:34:18;16.60;97.80
65692;DHT22;52411;52.716;6.696;2023-06-14T05:36:43;16.80;97.40
65692;DHT22;52411;52.716;6.696;2023-06-14T05:39:09;16.80;97.20
65692;DHT22;52411;52.716;6.696;2023-06-14T05:41:35;16.90;97.30
65692;DHT22;52411;52.716;6.696;2023-06-14T05:44:01;17.00;96.80
65692;DHT22;52411;52.716;6.696;2023-06-14T05:46:27;17.10;96.80
65692;DHT22;52411;52.716;6.696;2023-06-14T05:48:54;17.30;97.00
65692;DHT22;52411;52.716;6.696;2023-06-14T05:51:20;17.30;96.40
65692;DHT22;52411;52.716;6.696;2023-06-14T05:53:46;17.50;96.30
65692;DHT22;52411;52.716;6.696;2023-06-14T05:56:12;17.50;95.80
65692;DHT22;52411;52.716;6.696;2023-06-14T05:58:38;17.60;95.90
65692;DHT22;52411;52.716;6.696;2023-06-14T06:01:04;17.60;95.50
65692;DHT22;52411;52.716;6.696;2023-06-14T06:03:30;17.80;95.10
65692;DHT22;52411;52.716;6.696;2023-06-14T06:05:55;17.80;95.10
65692;DHT22;52411;52.716;6.696;2023-06-14T06:08:21;17.90;95.10
65692;DHT22;52411;52.716;6.696;2023-06-14T06:10:47;18.00;94.80
65692;DHT22;52411;52.716;6.696;2023-06-14T06:13:12;18.10;94.50
65692;DHT22;52411;52.716;6.696;2023-06-14T06:15:38;18.20;94.20
65692;DHT22;52411;52.716;6.696;2023-06-14T06:18:03;18.30;93.80
65692;DHT22;52411;52.716;6.696;2023-06-14T06:20:29;18.40;93.50
65692;DHT22;52411;52.716;6.696;2023-06-14T06:23:00;18.40;93.40
65692;DHT22;52411;52.716;6.696;2023-06-14T06:25:26;18.50;93.10
65692;DHT22;52411;52.716;6.696;2023-06-14T06:27:55;18.60;92.50
65692;DHT22;52411;52.716;6.696;2023-06-14T06:30:24;18.70;92.60
65692;DHT22;52411;52.716;6.696;2023-06-14T06:32:51;18.80;92.20
65692;DHT22;52411;52.716;6.696;2023-06-14T06:35:16;18.90;92.10
65692;DHT22;52411;52.716;6.696;2023-06-14T06:37:42;18.90;92.00
65692;DHT22;52411;52.716;6.696;2023-06-14T06:40:08;19.00;91.40
65692;DHT22;52411;52.716;6.696;2023-06-14T06:42:35;19.10;91.70
65692;DHT22;52411;52.716;6.696;2023-06-14T06:45:00;19.20;91.60
65692;DHT22;52411;52.716;6.696;2023-06-14T06:47:26;19.20;91.30
65692;DHT22;52411;52.716;6.696;2023-06-14T06:49:52;19.30;91.20
65692;DHT22;52411;52.716;6.696;2023-06-14T06:52:17;19.40;91.00
65692;DHT22;52411;52.716;6.696;2023-06-14T06:54:43;19.40;90.50
65692;DHT22;52411;52.716;6.696;2023-06-14T06:57:09;19.50;90.50
65692;DHT22;52411;52.716;6.696;2023-06-14T06:59:36;19.50;90.50
65692;DHT22;52411;52.716;6.696;2023-06-14T07:02:02;19.60;90.40
65692;DHT22;52411;52.716;6.696;2023-06-14T07:04:27;19.70;90.10
65692;DHT22;52411;52.716;6.696;2023-06-14T07:06:53;19.80;90.10
65692;DHT22;52411;52.716;6.696;2023-06-14T07:09:18;19.80;90.20
65692;DHT22;52411;52.716;6.696;2023-06-14T07:11:46;19.90;89.70
65692;DHT22;52411;52.716;6.696;2023-06-14T07:14:12;20.00;90.00
65692;DHT22;52411;52.716;6.696;2023-06-14T07:16:37;20.10;89.50
65692;DHT22;52411;52.716;6.696;2023-06-14T07:19:03;20.20;88.40
65692;DHT22;52411;52.716;6.696;2023-06-14T07:21:29;20.10;87.90
65692;DHT22;52411;52.716;6.696;2023-06-14T07:23:55;20.20;87.60
65692;DHT22;52411;52.716;6.696;2023-06-14T07:26:21;20.30;87.40
65692;DHT22;52411;52.716;6.696;2023-06-14T07:28:47;20.30;86.50
65692;DHT22;52411;52.716;6.696;2023-06-14T07:31:17;20.30;86.70
65692;DHT22;52411;52.716;6.696;2023-06-14T07:33:44;20.40;86.40
65692;DHT22;52411;52.716;6.696;2023-06-14T07:36:10;20.30;85.10
65692;DHT22;52411;52.716;6.696;2023-06-14T07:38:36;20.40;85.40
65692;DHT22;52411;52.716;6.696;2023-06-14T07:41:02;20.30;83.50
65692;DHT22;52411;52.716;6.696;2023-06-14T07:43:27;20.40;84.40
65692;DHT22;52411;52.716;6.696;2023-06-14T07:45:53;20.40;83.80
65692;DHT22;52411;52.716;6.696;2023-06-14T07:48:19;20.50;83.30
65692;DHT22;52411;52.716;6.696;2023-06-14T07:50:44;20.60;83.60
65692;DHT22;52411;52.716;6.696;2023-06-14T07:53:10;20.50;81.10
65692;DHT22;52411;52.716;6.696;2023-06-14T07:55:36;20.60;80.20
65692;DHT22;52411;52.716;6.696;2023-06-14T07:58:06;20.70;80.90
65692;DHT22;52411;52.716;6.696;2023-06-14T08:00:32;20.80;82.00
65692;DHT22;52411;52.716;6.696;2023-06-14T08:02:58;20.90;80.10
65692;DHT22;52411;52.716;6.696;2023-06-14T08:05:27;20.90;78.50
65692;DHT22;52411;52.716;6.696;2023-06-14T08:07:54;21.00;77.70
65692;DHT22;52411;52.716;6.696;2023-06-14T08:10:20;21.10;78.30
65692;DHT22;52411;52.716;6.696;2023-06-14T08:12:45;21.20;78.50
65692;DHT22;52411;52.716;6.696;2023-06-14T08:15:11;21.40;75.50
65692;DHT22;52411;52.716;6.696;2023-06-14T08:17:37;21.30;76.00
65692;DHT22;52411;52.716;6.696;2023-06-14T08:20:03;21.40;75.60
65692;DHT22;52411;52.716;6.696;2023-06-14T08:22:30;21.50;75.10
65692;DHT22;52411;52.716;6.696;2023-06-14T08:24:59;21.50;72.50
65692;DHT22;52411;52.716;6.696;2023-06-14T08:27:26;21.50;71.60
65692;DHT22;52411;52.716;6.696;2023-06-14T08:29:52;21.50;69.70
65692;DHT22;52411;52.716;6.696;2023-06-14T08:32:18;21.50;71.00
65692;DHT22;52411;52.716;6.696;2023-06-14T08:34:43;21.60;70.10
65692;DHT22;52411;52.716;6.696;2023-06-14T08:37:09;21.50;69.30
65692;DHT22;52411;52.716;6.696;2023-06-14T08:39:34;21.60;70.60
65692;DHT22;52411;52.716;6.696;2023-06-14T08:42:01;21.80;69.60
65692;DHT22;52411;52.716;6.696;2023-06-14T08:44:28;21.90;68.80
65692;DHT22;52411;52.716;6.696;2023-06-14T08:46:55;22.00;69.20
65692;DHT22;52411;52.716;6.696;2023-06-14T08:49:25;22.20;69.30
65692;DHT22;52411;52.716;6.696;2023-06-14T08:51:57;22.30;68.20
65692;DHT22;52411;52.716;6.696;2023-06-14T08:54:28;22.40;68.40
65692;DHT22;52411;52.716;6.696;2023-06-14T08:56:56;22.40;68.10
65692;DHT22;52411;52.716;6.696;2023-06-14T08:59:25;22.50;68.00
65692;DHT22;52411;52.716;6.696;2023-06-14T09:01:51;22.50;67.90
65692;DHT22;52411;52.716;6.696;2023-06-14T09:04:18;22.60;67.70
65692;DHT22;52411;52.716;6.696;2023-06-14T09:06:45;22.60;66.00
65692;DHT22;52411;52.716;6.696;2023-06-14T09:09:11;22.70;67.00
65692;DHT22;52411;52.716;6.696;2023-06-14T09:11:37;22.80;67.00
65692;DHT22;52411;52.716;6.696;2023-06-14T09:14:03;22.90;65.90
65692;DHT22;52411;52.716;6.696;2023-06-14T09:16:32;22.80;65.00
65692;DHT22;52411;52.716;6.696;2023-06-14T09:18:58;22.80;63.40
65692;DHT22;52411;52.716;6.696;2023-06-14T09:21:24;22.70;61.90
65692;DHT22;52411;52.716;6.696;2023-06-14T09:23:50;22.70;63.10
65692;DHT22;52411;52.716;6.696;2023-06-14T09:26:17;22.70;63.20
65692;DHT22;52411;52.716;6.696;2023-06-14T09:28:44;22.80;62.60
65692;DHT22;52411;52.716;6.696;2023-06-14T09:31:11;22.70;62.10
65692;DHT22;52411;52.716;6.696;2023-06-14T09:33:37;22.80;61.50
65692;DHT22;52411;52.716;6.696;2023-06-14T09:36:04;22.80;60.60
65692;DHT22;52411;52.716;6.696;2023-06-14T09:38:29;22.80;60.80
65692;DHT22;52411;52.716;6.696;2023-06-14T09:40:58;22.90;59.90
65692;DHT22;52411;52.716;6.696;2023-06-14T09:43:24;22.90;60.40
65692;DHT22;52411;52.716;6.696;2023-06-14T09:45:51;22.90;59.30
65692;DHT22;52411;52.716;6.696;2023-06-14T09:48:17;22.90;59.30
65692;DHT22;52411;52.716;6.696;2023-06-14T09:50:50;23.10;59.50
65692;DHT22;52411;52.716;6.696;2023-06-14T09:53:16;23.30;59.20
65692;DHT22;52411;52.716;6.696;2023-06-14T09:55:45;23.40;59.00
65692;DHT22;52411;52.716;6.696;2023-06-14T09:58:12;23.30;58.30
65692;DHT22;52411;52.716;6.696;2023-06-14T10:00:40;23.40;58.80
65692;DHT22;52411;52.716;6.696;2023-06-14T10:03:12;23.50;58.20
65692;DHT22;52411;52.716;6.696;2023-06-14T10:05:41;23.40;56.50
65692;DHT22;52411;52.716;6.696;2023-06-14T10:08:17;23.60;57.50
65692;DHT22;52411;52.716;6.696;2023-06-14T10:10:43;23.40;55.40
65692;DHT22;52411;52.716;6.696;2023-06-14T10:13:10;23.40;56.10
65692;DHT22;52411;52.716;6.696;2023-06-14T10:15:53;23.50;55.40
65692;DHT22;52411;52.716;6.696;2023-06-14T10:18:33;23.60;55.80
65692;DHT22;52411;52.716;6.696;2023-06-14T10:23:38;23.90;55.20
65692;DHT22;52411;52.716;6.696;2023-06-14T10:26:05;23.90;54.50
65692;DHT22;52411;52.716;6.696;2023-06-14T10:28:31;24.10;55.60
65692;DHT22;52411;52.716;6.696;2023-06-14T10:31:11;23.90;53.50
65692;DHT22;52411;52.716;6.696;2023-06-14T10:33:56;23.60;52.40
65692;DHT22;52411;52.716;6.696;2023-06-14T10:38:57;23.30;53.50
65692;DHT22;52411;52.716;6.696;2023-06-14T10:41:24;23.50;54.80
65692;DHT22;52411;52.716;6.696;2023-06-14T10:43:51;23.70;54.90
65692;DHT22;52411;52.716;6.696;2023-06-14T10:46:18;23.60;54.20
65692;DHT22;52411;52.716;6.696;2023-06-14T10:48:44;23.60;52.90
65692;DHT22;52411;52.716;6.696;2023-06-14T10:51:19;23.70;54.00
65692;DHT22;52411;52.716;6.696;2023-06-14T10:53:47;23.80;53.30
65692;DHT22;52411;52.716;6.696;2023-06-14T10:56:26;23.70;53.80
65692;DHT22;52411;52.716;6.696;2023-06-14T10:58:52;23.80;53.40
65692;DHT22;52411;52.716;6.696;2023-06-14T11:01:36;23.90;54.60
65692;DHT22;52411;52.716;6.696;2023-06-14T11:04:11;24.00;54.90
65692;DHT22;52411;52.716;6.696;2023-06-14T11:06:47;24.10;53.70
65692;DHT22;52411;52.716;6.696;2023-06-14T11:12:23;24.10;53.40
65692;DHT22;52411;52.716;6.696;2023-06-14T11:14:50;24.50;55.20
65692;DHT22;52411;52.716;6.696;2023-06-14T11:17:16;24.70;55.00
65692;DHT22;52411;52.716;6.696;2023-06-14T11:19:41;24.60;53.20
65692;DHT22;52411;52.716;6.696;2023-06-14T11:22:07;24.50;54.20
65692;DHT22;52411;52.716;6.696;2023-06-14T11:24:33;24.40;54.10
65692;DHT22;52411;52.716;6.696;2023-06-14T11:26:58;24.80;54.70
65692;DHT22;52411;52.716;6.696;2023-06-14T11:29:24;24.80;54.10
65692;DHT22;52411;52.716;6.696;2023-06-14T11:31:50;24.90;55.40
65692;DHT22;52411;52.716;6.696;2023-06-14T11:34:16;25.20;56.20
65692;DHT22;52411;52.716;6.696;2023-06-14T11:36:42;25.20;53.60
65692;DHT22;52411;52.716;6.696;2023-06-14T11:39:08;25.20;54.70
65692;DHT22;52411;52.716;6.696;2023-06-14T11:41:45;25.30;54.50
65692;DHT22;52411;52.716;6.696;2023-06-14T11:44:11;25.20;54.20
65692;DHT22;52411;52.716;6.696;2023-06-14T11:46:37;25.40;54.80
65692;DHT22;52411;52.716;6.696;2023-06-14T11:49:04;25.50;54.50
65692;DHT22;52411;52.716;6.696;2023-06-14T11:51:34;25.50;53.80
65692;DHT22;52411;52.716;6.696;2023-06-14T11:54:01;25.30;53.80
65692;DHT22;52411;52.716;6.696;2023-06-14T11:56:28;25.20;54.60
65692;DHT22;52411;52.716;6.696;2023-06-14T11:58:54;25.40;54.90
65692;DHT22;52411;52.716;6.696;2023-06-14T12:01:22;25.50;55.00
65692;DHT22;52411;52.716;6.696;2023-06-14T12:03:53;25.70;55.00
65692;DHT22;52411;52.716;6.696;2023-06-14T12:06:26;25.60;54.80
65692;DHT22;52411;52.716;6.696;2023-06-14T12:08:55;25.30;54.40
65692;DHT22;52411;52.716;6.696;2023-06-14T12:11:21;25.60;55.20
65692;DHT22;52411;52.716;6.696;2023-06-14T12:13:49;25.60;54.30
65692;DHT22;52411;52.716;6.696;2023-06-14T12:16:14;25.70;54.70
65692;DHT22;52411;52.716;6.696;2023-06-14T12:18:41;25.40;54.30
65692;DHT22;52411;52.716;6.696;2023-06-14T12:21:09;25.60;54.90
65692;DHT22;52411;52.716;6.696;2023-06-14T12:23:45;25.50;53.10
65692;DHT22;52411;52.716;6.696;2023-06-14T12:26:19;25.60;53.10
65692;DHT22;52411;52.716;6.696;2023-06-14T12:28:45;25.90;55.20
65692;DHT22;52411;52.716;6.696;2023-06-14T12:31:12;26.20;54.20
65692;DHT22;52411;52.716;6.696;2023-06-14T12:33:39;25.90;53.10
65692;DHT22;52411;52.716;6.696;2023-06-14T12:36:07;26.00;53.70
65692;DHT22;52411;52.716;6.696;2023-06-14T12:38:33;25.90;52.90
65692;DHT22;52411;52.716;6.696;2023-06-14T12:40:59;26.20;54.30
65692;DHT22;52411;52.716;6.696;2023-06-14T12:43:25;26.20;53.90
65692;DHT22;52411;52.716;6.696;2023-06-14T12:45:51;26.20;54.10
65692;DHT22;52411;52.716;6.696;2023-06-14T12:48:16;26.30;54.20
65692;DHT22;52411;52.716;6.696;2023-06-14T12:50:42;26.50;54.10
65692;DHT22;52411;52.716;6.696;2023-06-14T12:53:08;26.70;53.30
65692;DHT22;52411;52.716;6.696;2023-06-14T12:55:33;26.90;53.70
65692;DHT22;52411;52.716;6.696;2023-06-14T12:57:59;27.00;53.90
65692;DHT22;52411;52.716;6.696;2023-06-14T13:00:25;27.30;54.00
65692;DHT22;52411;52.716;6.696;2023-06-14T13:02:55;27.50;53.40
65692;DHT22;52411;52.716;6.696;2023-06-14T13:05:21;27.40;52.70
65692;DHT22;52411;52.716;6.696;2023-06-14T13:07:46;27.50;52.90
65692;DHT22;52411;52.716;6.696;2023-06-14T13:10:12;27.50;52.80
65692;DHT22;52411;52.716;6.696;2023-06-14T13:12:38;27.80;52.80
65692;DHT22;52411;52.716;6.696;2023-06-14T13:15:03;27.80;52.30
65692;DHT22;52411;52.716;6.696;2023-06-14T13:17:29;27.80;52.00
65692;DHT22;52411;52.716;6.696;2023-06-14T13:19:55;27.60;52.30
65692;DHT22;52411;52.716;6.696;2023-06-14T13:22:20;27.50;51.30
65692;DHT22;52411;52.716;6.696;2023-06-14T13:24:46;26.90;51.20
65692;DHT22;52411;52.716;6.696;2023-06-14T13:27:11;26.90;51.40
65692;DHT22;52411;52.716;6.696;2023-06-14T13:29:39;27.20;52.10
65692;DHT22;52411;52.716;6.696;2023-06-14T13:32:05;27.50;52.60
65692;DHT22;52411;52.716;6.696;2023-06-14T13:34:31;27.60;50.90
65692;DHT22;52411;52.716;6.696;2023-06-14T13:36:57;27.80;51.80
65692;DHT22;52411;52.716;6.696;2023-06-14T13:39:25;27.40;50.80
65692;DHT22;52411;52.716;6.696;2023-06-14T13:41:50;27.70;51.90
65692;DHT22;52411;52.716;6.696;2023-06-14T13:44:16;27.80;51.70
65692;DHT22;52411;52.716;6.696;2023-06-14T13:46:44;28.00;52.10
65692;DHT22;52411;52.716;6.696;2023-06-14T13:49:11;28.40;52.20
65692;DHT22;52411;52.716;6.696;2023-06-14T13:51:37;28.50;50.60
65692;DHT22;52411;52.716;6.696;2023-06-14T13:54:03;28.20;51.10
65692;DHT22;52411;52.716;6.696;2023-06-14T13:56:29;28.00;50.50
65692;DHT22;52411;52.716;6.696;2023-06-14T13:58:55;27.90;51.40
65692;DHT22;52411;52.716;6.696;2023-06-14T14:01:21;28.00;50.50
65692;DHT22;52411;52.716;6.696;2023-06-14T14:03:48;28.30;51.40
65692;DHT22;52411;52.716;6.696;2023-06-14T14:06:15;28.80;51.50
65692;DHT22;52411;52.716;6.696;2023-06-14T14:08:41;28.50;51.20
65692;DHT22;52411;52.716;6.696;2023-06-14T14:11:08;28.60;51.50
65692;DHT22;52411;52.716;6.696;2023-06-14T14:13:35;28.60;50.10
65692;DHT22;52411;52.716;6.696;2023-06-14T14:16:04;28.70;50.90
65692;DHT22;52411;52.716;6.696;2023-06-14T14:18:29;28.70;51.00
65692;DHT22;52411;52.716;6.696;2023-06-14T14:20:56;29.00;51.90
65692;DHT22;52411;52.716;6.696;2023-06-14T14:23:22;29.00;50.60
65692;DHT22;52411;52.716;6.696;2023-06-14T14:25:47;29.10;51.30
65692;DHT22;52411;52.716;6.696;2023-06-14T14:28:13;29.10;49.20
65692;DHT22;52411;52.716;6.696;2023-06-14T14:30:41;29.60;50.50
65692;DHT22;52411;52.716;6.696;2023-06-14T14:33:07;30.10;50.10
65692;DHT22;52411;52.716;6.696;2023-06-14T14:35:33;30.40;49.70
65692;DHT22;52411;52.716;6.696;2023-06-14T14:37:59;30.50;49.40
65692;DHT22;52411;52.716;6.696;2023-06-14T14:40:24;30.60;49.30
65692;DHT22;52411;52.716;6.696;2023-06-14T14:42:50;30.60;48.10
65692;DHT22;52411;52.716;6.696;2023-06-14T14:45:16;29.90;48.70
65692;DHT22;52411;52.716;6.696;2023-06-14T14:47:41;29.90;46.80
65692;DHT22;52411;52.716;6.696;2023-06-14T14:50:07;29.10;47.80
65692;DHT22;52411;52.716;6.696;2023-06-14T14:52:36;28.40;48.50
65692;DHT22;52411;52.716;6.696;2023-06-14T14:55:01;28.80;48.80
65692;DHT22;52411;52.716;6.696;2023-06-14T14:57:27;29.20;48.40
65692;DHT22;52411;52.716;6.696;2023-06-14T14:59:53;29.80;48.50
65692;DHT22;52411;52.716;6.696;2023-06-14T15:02:19;30.50;48.50
65692;DHT22;52411;52.716;6.696;2023-06-14T15:04:45;30.80;48.40
65692;DHT22;52411;52.716;6.696;2023-06-14T15:07:11;31.00;47.50
65692;DHT22;52411;52.716;6.696;2023-06-14T15:09:37;31.50;47.10
65692;DHT22;52411;52.716;6.696;2023-06-14T15:12:03;31.90;47.40
65692;DHT22;52411;52.716;6.696;2023-06-14T15:14:29;31.70;46.70
65692;DHT22;52411;52.716;6.696;2023-06-14T15:16:55;32.20;46.70
65692;DHT22;52411;52.716;6.696;2023-06-14T15:19:20;32.30;46.10
65692;DHT22;52411;52.716;6.696;2023-06-14T15:21:46;32.30;45.90
65692;DHT22;52411;52.716;6.696;2023-06-14T15:24:11;32.30;45.90
65692;DHT22;52411;52.716;6.696;2023-06-14T15:26:37;32.80;45.40
65692;DHT22;52411;52.716;6.696;2023-06-14T15:29:03;32.90;45.40
65692;DHT22;52411;52.716;6.696;2023-06-14T15:31:28;33.10;45.00
65692;DHT22;52411;52.716;6.696;2023-06-14T15:33:54;32.60;43.90
65692;DHT22;52411;52.716;6.696;2023-06-14T15:36:20;32.90;44.70
65692;DHT22;52411;52.716;6.696;2023-06-14T15:38:45;32.40;44.40
65692;DHT22;52411;52.716;6.696;2023-06-14T15:41:11;32.00;44.60